createdAt,value
2023-04-05T00:00:01.762Z,98399.56
2023-04-05T00:03:10.534Z,98398.91
2023-04-05T00:06:14.070Z,98395.50
2023-04-05T00:09:19.855Z,98392.88
2023-04-05T00:12:22.620Z,98384.94
2023-04-05T00:15:25.991Z,98388.63
2023-04-05T00:18:34.622Z,98382.50
2023-04-05T00:21:39.641Z,98373.03
2023-04-05T00:24:43.764Z,98378.06
2023-04-05T00:27:46.903Z,98379.94
2023-04-05T00:30:52.997Z,98372.22
2023-04-05T00:33:55.716Z,98378.53
2023-04-05T00:37:01.242Z,98370.63
2023-04-05T00:40:04.840Z,98368.19
2023-04-05T00:43:07.569Z,98375.28
2023-04-05T00:46:10.585Z,98382.78
2023-04-05T00:49:13.596Z,98376.78
2023-04-05T00:52:16.830Z,98367.53
2023-04-05T00:55:19.785Z,98379.38
2023-04-05T00:58:22.988Z,98374.22
2023-04-05T01:01:31.147Z,98376.31
2023-04-05T01:04:37.364Z,98376.88
2023-04-05T01:07:45.777Z,98369.63
2023-04-05T01:10:56.084Z,98372.69
2023-04-05T01:14:00.307Z,98373.03
2023-04-05T01:17:03.449Z,98376.72
2023-04-05T01:20:13.499Z,98375.69
2023-04-05T01:23:31.348Z,98380.09
2023-04-05T01:26:58.547Z,98367.78
2023-04-05T01:30:09.971Z,98369.44
2023-04-05T01:33:33.641Z,98364.59
2023-04-05T01:36:49.884Z,98375.78
2023-04-05T01:39:52.782Z,98363.91
2023-04-05T01:42:55.866Z,98366.00
2023-04-05T01:45:58.846Z,98362.47
2023-04-05T01:49:01.428Z,98369.91
2023-04-05T01:52:04.240Z,98373.69
2023-04-05T01:55:07.314Z,98371.63
2023-04-05T01:58:10.222Z,98372.66
2023-04-05T02:01:13.547Z,98369.63
2023-04-05T02:04:16.425Z,98365.09
2023-04-05T02:07:19.168Z,98369.63
2023-04-05T02:10:23.445Z,98374.81
2023-04-05T02:13:28.802Z,98372.13
2023-04-05T02:16:34.046Z,98371.81
2023-04-05T02:19:42.602Z,98373.47
2023-04-05T02:22:45.928Z,98376.94
2023-04-05T02:25:48.832Z,98376.56
2023-04-05T02:28:51.454Z,98381.31
2023-04-05T02:31:56.382Z,98375.03
2023-04-05T02:34:59.161Z,98379.53
2023-04-05T02:38:02.782Z,98370.38
2023-04-05T02:41:09.552Z,98371.63
2023-04-05T02:44:14.220Z,98377.97
2023-04-05T02:47:21.764Z,98369.47
2023-04-05T02:50:30.988Z,98377.38
2023-04-05T02:53:33.959Z,98372.22
2023-04-05T02:56:40.816Z,98373.09
2023-04-05T02:59:48.094Z,98380.66
2023-04-05T03:02:51.112Z,98372.56
2023-04-05T03:06:12.659Z,98373.81
2023-04-05T03:09:18.750Z,98382.09
2023-04-05T03:12:24.634Z,98376.38
2023-04-05T03:15:28.476Z,98370.25
2023-04-05T03:18:33.307Z,98377.59
2023-04-05T03:21:42.461Z,98380.50
2023-04-05T03:24:59.048Z,98373.38
2023-04-05T03:28:05.926Z,98368.47
2023-04-05T03:31:08.967Z,98370.41
2023-04-05T03:34:12.022Z,98372.75
2023-04-05T03:37:20.145Z,98374.94
2023-04-05T03:40:33.920Z,98365.81
2023-04-05T03:43:38.289Z,98367.78
2023-04-05T03:46:42.896Z,98371.53
2023-04-05T03:49:45.694Z,98370.22
2023-04-05T03:52:48.543Z,98375.19
2023-04-05T03:55:54.518Z,98375.63
2023-04-05T03:59:09.585Z,98369.47
2023-04-05T04:02:12.892Z,98378.84
2023-04-05T04:05:17.159Z,98377.50
2023-04-05T04:08:22.289Z,98378.94
2023-04-05T04:11:25.145Z,98381.16
2023-04-05T04:14:28.227Z,98380.84
2023-04-05T04:17:51.629Z,98385.63
2023-04-05T04:21:17.500Z,98386.75
2023-04-05T04:24:33.071Z,98375.13
2023-04-05T04:28:18.229Z,98385.09
2023-04-05T04:31:23.929Z,98378.31
2023-04-05T04:34:50.973Z,98387.66
2023-04-05T04:38:20.986Z,98382.59
2023-04-05T04:42:01.840Z,98387.13
2023-04-05T04:45:23.271Z,98378.47
2023-04-05T04:48:42.714Z,98386.94
2023-04-05T04:52:01.287Z,98372.59
2023-04-05T04:55:04.656Z,98375.16
2023-04-05T04:58:10.658Z,98371.13
2023-04-05T05:01:13.470Z,98375.78
2023-04-05T05:04:16.653Z,98376.16
2023-04-05T05:07:21.466Z,98383.06
2023-04-05T05:10:24.519Z,98380.91
2023-04-05T05:13:28.228Z,98374.53
2023-04-05T05:16:30.972Z,98375.97
2023-04-05T05:19:33.945Z,98376.38
2023-04-05T05:22:38.361Z,98373.72
2023-04-05T05:25:42.718Z,98381.59
2023-04-05T05:28:46.443Z,98375.91
2023-04-05T05:31:49.187Z,98377.63
2023-04-05T05:34:52.028Z,98378.25
2023-04-05T05:38:04.152Z,98381.97
2023-04-05T05:41:07.293Z,98380.03
2023-04-05T05:44:10.073Z,98380.19
2023-04-05T05:47:12.822Z,98388.38
2023-04-05T05:50:17.502Z,98374.81
2023-04-05T05:53:20.645Z,98386.41
2023-04-05T05:56:23.468Z,98389.34
2023-04-05T05:59:26.674Z,98387.72
2023-04-05T06:02:29.811Z,98397.25
2023-04-05T06:05:33.064Z,98393.63
2023-04-05T06:08:35.889Z,98399.94
2023-04-05T06:11:46.271Z,98393.03
2023-04-05T06:14:56.183Z,98392.50
2023-04-05T06:17:58.928Z,98392.34
2023-04-05T06:21:01.944Z,98391.53
2023-04-05T06:24:05.506Z,98383.97
2023-04-05T06:27:08.562Z,98387.91
2023-04-05T06:30:11.964Z,98392.16
2023-04-05T06:33:14.736Z,98388.25
2023-04-05T06:36:17.752Z,98378.22
2023-04-05T06:39:20.651Z,98380.81
2023-04-05T06:42:23.404Z,98372.34
2023-04-05T06:45:34.026Z,98383.66
2023-04-05T06:48:36.908Z,98387.16
2023-04-05T06:51:41.950Z,98379.34
2023-04-05T06:54:44.722Z,98373.69
2023-04-05T06:57:50.073Z,98386.22
2023-04-05T07:00:53.247Z,98378.88
2023-04-05T07:03:56.137Z,98381.91
2023-04-05T07:07:02.592Z,98383.72
2023-04-05T07:10:05.935Z,98382.69
2023-04-05T07:13:08.723Z,98384.38
2023-04-05T07:16:11.560Z,98385.88
2023-04-05T07:19:14.467Z,98387.47
2023-04-05T07:22:17.500Z,98387.38
2023-04-05T07:25:20.247Z,98385.59
2023-04-05T07:28:23.227Z,98382.91
2023-04-05T07:31:26.091Z,98398.59
2023-04-05T07:34:30.316Z,98373.81
2023-04-05T07:37:33.124Z,98376.56
2023-04-05T07:40:36.796Z,98383.22
2023-04-05T07:43:39.500Z,98374.16
2023-04-05T07:46:47.633Z,98373.22
2023-04-05T07:49:51.741Z,98361.50
2023-04-05T07:52:54.694Z,98379.69
2023-04-05T07:55:58.058Z,98378.66
2023-04-05T07:59:00.796Z,98374.19
2023-04-05T08:02:13.806Z,98372.81
2023-04-05T08:05:17.424Z,98373.06
2023-04-05T08:08:20.262Z,98379.88
2023-04-05T08:11:23.203Z,98374.94
2023-04-05T08:14:26.161Z,98383.44
2023-04-05T08:17:29.461Z,98378.72
2023-04-05T08:20:32.308Z,98379.06
2023-04-05T08:23:35.058Z,98369.81
2023-04-05T08:26:37.861Z,98370.75
2023-04-05T08:29:40.470Z,98351.25
2023-04-05T08:32:43.250Z,98371.19
2023-04-05T08:35:45.978Z,98354.78
2023-04-05T08:38:48.652Z,98355.66
2023-04-05T08:41:59.818Z,98356.31
2023-04-05T08:45:11.911Z,98348.16
2023-04-05T08:48:14.772Z,98341.47
2023-04-05T08:51:25.043Z,98331.06
2023-04-05T08:54:28.028Z,98341.69
2023-04-05T08:57:31.655Z,98338.56
2023-04-05T09:00:41.869Z,98325.03
2023-04-05T09:03:46.040Z,98325.59
2023-04-05T09:06:51.004Z,98323.72
2023-04-05T09:09:54.811Z,98325.47
2023-04-05T09:12:59.199Z,98324.00
2023-04-05T09:16:02.456Z,98326.53
2023-04-05T09:19:05.946Z,98336.44
2023-04-05T09:22:08.947Z,98324.56
2023-04-05T09:25:36.810Z,98306.06
2023-04-05T09:28:45.495Z,98315.00
2023-04-05T09:31:48.312Z,98315.84
2023-04-05T09:34:54.304Z,98322.28
2023-04-05T09:38:02.442Z,98309.56
2023-04-05T09:41:09.598Z,98303.78
2023-04-05T09:44:12.362Z,98306.28
2023-04-05T09:47:19.886Z,98301.28
2023-04-05T09:50:26.200Z,98293.16
2023-04-05T09:53:30.735Z,98284.13
2023-04-05T09:56:35.867Z,98288.75
2023-04-05T09:59:40.474Z,98276.47
2023-04-05T10:02:43.633Z,98280.66
2023-04-05T10:05:47.238Z,98277.41
2023-04-05T10:08:51.223Z,98271.78
2023-04-05T10:11:54.108Z,98268.19
2023-04-05T10:15:00.163Z,98270.16
2023-04-05T10:18:18.896Z,98278.81
2023-04-05T10:21:24.004Z,98255.56
2023-04-05T10:24:56.865Z,98249.75
2023-04-05T10:28:10.885Z,98245.50
2023-04-05T10:31:34.330Z,98242.72
2023-04-05T10:34:46.236Z,98234.22
2023-04-05T10:38:00.034Z,98236.81
2023-04-05T10:41:15.206Z,98233.50
2023-04-05T10:44:25.815Z,98236.69
2023-04-05T10:47:32.532Z,98236.94
2023-04-05T10:50:35.966Z,98230.88
2023-04-05T10:53:39.249Z,98228.41
2023-04-05T10:56:42.296Z,98218.56
2023-04-05T10:59:46.825Z,98212.38
2023-04-05T11:02:54.525Z,98216.91
2023-04-05T11:06:21.361Z,98228.00
2023-04-05T11:09:25.606Z,98207.16
2023-04-05T11:12:49.897Z,98219.38
2023-04-05T11:16:09.280Z,98222.28
2023-04-05T11:19:12.065Z,98222.97
2023-04-05T11:22:26.163Z,98219.69
2023-04-05T11:25:28.976Z,98217.41
2023-04-05T11:28:38.031Z,98221.53
2023-04-05T11:32:00.970Z,98214.41
2023-04-05T11:35:08.408Z,98203.16
2023-04-05T11:38:11.233Z,98199.56
2023-04-05T11:41:21.558Z,98199.72
2023-04-05T11:44:27.324Z,98208.38
2023-04-05T11:47:30.101Z,98210.75
2023-04-05T11:50:33.333Z,98206.56
2023-04-05T11:53:36.744Z,98200.94
2023-04-05T11:56:39.598Z,98194.97
2023-04-05T11:59:42.707Z,98191.94
2023-04-05T12:02:45.778Z,98181.91
2023-04-05T12:05:56.029Z,98200.72
2023-04-05T12:08:58.768Z,98182.50
2023-04-05T12:12:01.668Z,98202.63
2023-04-05T12:15:06.065Z,98196.19
2023-04-05T12:18:15.986Z,98196.09
2023-04-05T12:21:19.017Z,98172.47
2023-04-05T12:24:21.723Z,98182.94
2023-04-05T12:27:24.765Z,98174.25
2023-04-05T12:30:28.265Z,98175.88
2023-04-05T12:33:33.422Z,98163.34
2023-04-05T12:36:37.099Z,98162.66
2023-04-05T12:39:40.008Z,98173.03
2023-04-05T12:42:46.270Z,98179.38
2023-04-05T12:45:50.814Z,98173.34
2023-04-05T12:48:53.813Z,98181.75
2023-04-05T12:52:01.908Z,98163.16
2023-04-05T12:55:05.474Z,98160.09
2023-04-05T12:58:11.800Z,98149.84
2023-04-05T13:01:14.546Z,98158.16
2023-04-05T13:04:17.381Z,98153.56
2023-04-05T13:07:20.275Z,98167.59
2023-04-05T13:10:24.602Z,98157.03
2023-04-05T13:13:27.404Z,98168.19
2023-04-05T13:16:30.201Z,98161.84
2023-04-05T13:19:33.171Z,98155.00
2023-04-05T13:22:36.334Z,98145.56
2023-04-05T13:25:39.999Z,98158.06
2023-04-05T13:28:43.085Z,98156.91
2023-04-05T13:31:45.863Z,98150.59
2023-04-05T13:34:49.329Z,98156.00
2023-04-05T13:37:55.118Z,98152.31
2023-04-05T13:40:58.018Z,98139.81
2023-04-05T13:44:02.386Z,98147.75
2023-04-05T13:47:06.170Z,98148.34
2023-04-05T13:50:09.244Z,98143.97
2023-04-05T13:53:12.149Z,98145.44
2023-04-05T13:56:15.098Z,98144.72
2023-04-05T13:59:19.842Z,98147.91
2023-04-05T14:02:26.219Z,98134.69
2023-04-05T14:05:29.072Z,98142.38
2023-04-05T14:08:32.060Z,98141.44
2023-04-05T14:11:35.445Z,98143.03
2023-04-05T14:14:38.324Z,98145.88
2023-04-05T14:17:41.360Z,98140.41
2023-04-05T14:20:44.457Z,98141.69
2023-04-05T14:23:47.874Z,98127.38
2023-04-05T14:26:50.885Z,98133.03
2023-04-05T14:29:59.114Z,98128.25
2023-04-05T14:33:02.377Z,98135.78
2023-04-05T14:36:05.806Z,98139.06
2023-04-05T14:39:08.547Z,98143.41
2023-04-05T14:42:11.424Z,98140.63
2023-04-05T14:45:14.465Z,98147.56
2023-04-05T14:48:17.503Z,98142.38
2023-04-05T14:51:20.521Z,98143.38
2023-04-05T14:54:23.617Z,98146.66
2023-04-05T14:57:26.997Z,98155.56
2023-04-05T15:00:30.044Z,98153.38
2023-04-05T15:03:33.827Z,98140.53
2023-04-05T15:06:38.934Z,98144.25
2023-04-05T15:09:42.630Z,98141.88
2023-04-05T15:12:45.744Z,98150.38
2023-04-05T15:15:48.550Z,98147.97
2023-04-05T15:18:51.536Z,98163.72
2023-04-05T15:21:54.641Z,98154.53
2023-04-05T15:24:57.708Z,98164.63
2023-04-05T15:28:05.376Z,98168.56
2023-04-05T15:31:09.691Z,98162.16
2023-04-05T15:34:13.691Z,98176.59
2023-04-05T15:37:16.730Z,98161.44
2023-04-05T15:40:19.857Z,98174.59
2023-04-05T15:43:24.571Z,98174.34
2023-04-05T15:46:29.810Z,98177.34
2023-04-05T15:49:33.278Z,98180.06
2023-04-05T15:52:38.029Z,98188.47
2023-04-05T15:55:40.927Z,98207.78
2023-04-05T15:58:43.710Z,98185.56
2023-04-05T16:01:46.868Z,98190.75
2023-04-05T16:04:49.709Z,98185.00
2023-04-05T16:07:52.608Z,98184.25
2023-04-05T16:10:56.682Z,98191.56
2023-04-05T16:14:00.098Z,98184.41
2023-04-05T16:17:03.279Z,98193.28
2023-04-05T16:20:07.045Z,98190.03
2023-04-05T16:23:10.308Z,98192.94
2023-04-05T16:26:13.970Z,98211.38
2023-04-05T16:29:16.946Z,98201.47
2023-04-05T16:32:20.848Z,98203.72
2023-04-05T16:35:23.832Z,98231.19
2023-04-05T16:38:27.142Z,98217.50
2023-04-05T16:41:30.185Z,98215.66
2023-04-05T16:44:35.465Z,98209.94
2023-04-05T16:47:45.915Z,98211.06
2023-04-05T16:50:52.281Z,98223.13
2023-04-05T16:53:55.949Z,98228.09
2023-04-05T16:56:59.082Z,98246.78
2023-04-05T17:00:03.093Z,98239.94
2023-04-05T17:03:06.119Z,98232.94
2023-04-05T17:06:11.434Z,98232.38
2023-04-05T17:09:14.398Z,98241.94
2023-04-05T17:12:17.328Z,98255.41
2023-04-05T17:15:23.159Z,98254.16
2023-04-05T17:18:26.230Z,98250.91
2023-04-05T17:21:29.056Z,98254.63
2023-04-05T17:24:36.762Z,98251.59
2023-04-05T17:27:42.159Z,98251.16
2023-04-05T17:30:45.072Z,98260.69
2023-04-05T17:33:49.154Z,98255.69
2023-04-05T17:36:53.168Z,98257.66
2023-04-05T17:39:59.069Z,98267.69
2023-04-05T17:43:01.922Z,98267.97
2023-04-05T17:46:05.232Z,98267.81
2023-04-05T17:49:08.398Z,98265.09
2023-04-05T17:52:13.194Z,98275.22
2023-04-05T17:55:16.491Z,98273.38
2023-04-05T17:58:19.718Z,98267.72
2023-04-05T18:01:22.868Z,98275.03
2023-04-05T18:04:26.572Z,98280.75
2023-04-05T18:07:29.760Z,98283.00
2023-04-05T18:10:32.987Z,98276.53
2023-04-05T18:13:36.251Z,98280.03
2023-04-05T18:16:39.112Z,98284.09
2023-04-05T18:19:42.224Z,98286.41
2023-04-05T18:22:45.360Z,98279.56
2023-04-05T18:25:49.023Z,98283.47
2023-04-05T18:28:58.028Z,98285.28
2023-04-05T18:32:01.082Z,98286.41
2023-04-05T18:35:04.144Z,98287.34
2023-04-05T18:38:09.985Z,98282.69
2023-04-05T18:41:13.156Z,98283.22
2023-04-05T18:44:16.387Z,98294.22
2023-04-05T18:47:19.380Z,98296.22
2023-04-05T18:50:22.514Z,98296.28
2023-04-05T18:53:25.476Z,98291.72
2023-04-05T18:56:28.925Z,98288.97
2023-04-05T18:59:32.304Z,98288.31
2023-04-05T19:02:36.373Z,98296.81
2023-04-05T19:05:39.711Z,98290.81
2023-04-05T19:08:42.759Z,98297.16
2023-04-05T19:11:45.682Z,98296.50
2023-04-05T19:14:48.500Z,98296.31
2023-04-05T19:17:51.505Z,98301.47
2023-04-05T19:20:55.738Z,98309.56
2023-04-05T19:23:58.831Z,98306.13
2023-04-05T19:27:01.890Z,98303.91
2023-04-05T19:30:05.404Z,98305.56
2023-04-05T19:33:08.718Z,98297.44
2023-04-05T19:36:14.747Z,98306.97
2023-04-05T19:39:17.683Z,98309.16
2023-04-05T19:42:21.885Z,98313.34
2023-04-05T19:45:26.999Z,98305.59
2023-04-05T19:48:38.464Z,98301.25
2023-04-05T19:51:42.875Z,98307.28
2023-04-05T19:54:45.879Z,98315.25
2023-04-05T19:57:48.851Z,98305.09
2023-04-05T20:00:55.635Z,98311.75
2023-04-05T20:03:59.008Z,98304.50
2023-04-05T20:07:01.876Z,98306.94
2023-04-05T20:10:19.650Z,98303.16
2023-04-05T20:13:22.606Z,98296.34
2023-04-05T20:16:30.608Z,98297.84
2023-04-05T20:19:34.011Z,98298.78
2023-04-05T20:22:37.400Z,98296.22
2023-04-05T20:25:44.107Z,98298.66
2023-04-05T20:28:58.124Z,98286.50
2023-04-05T20:32:01.649Z,98282.63
2023-04-05T20:35:08.268Z,98290.88
2023-04-05T20:38:11.362Z,98293.94
2023-04-05T20:41:15.852Z,98283.28
2023-04-05T20:44:18.866Z,98280.88
2023-04-05T20:47:21.685Z,98282.41
2023-04-05T20:50:24.834Z,98285.75
2023-04-05T20:53:28.993Z,98278.09
2023-04-05T20:56:32.000Z,98278.06
2023-04-05T20:59:34.958Z,98277.69
2023-04-05T21:02:37.980Z,98282.34
2023-04-05T21:05:41.118Z,98284.34
2023-04-05T21:08:44.044Z,98287.34
2023-04-05T21:11:46.990Z,98283.03
2023-04-05T21:14:49.793Z,98275.09
2023-04-05T21:17:52.587Z,98273.69
2023-04-05T21:20:55.924Z,98281.00
2023-04-05T21:23:58.627Z,98277.38
2023-04-05T21:27:02.307Z,98270.88
2023-04-05T21:30:05.948Z,98268.44
2023-04-05T21:33:09.083Z,98267.69
2023-04-05T21:36:11.914Z,98269.19
2023-04-05T21:39:14.871Z,98258.25
2023-04-05T21:42:17.686Z,98254.59
2023-04-05T21:45:20.750Z,98267.78
2023-04-05T21:48:25.048Z,98263.53
2023-04-05T21:51:27.814Z,98263.56
2023-04-05T21:54:30.640Z,98274.13
2023-04-05T21:57:34.078Z,98264.47
2023-04-05T22:00:37.125Z,98269.84
2023-04-05T22:03:39.863Z,98264.19
2023-04-05T22:06:42.694Z,98266.31
2023-04-05T22:09:45.588Z,98274.38
2023-04-05T22:12:48.273Z,98270.34
2023-04-05T22:15:50.991Z,98265.13
2023-04-05T22:18:54.013Z,98272.38
2023-04-05T22:21:56.871Z,98275.56
2023-04-05T22:24:59.906Z,98272.09
2023-04-05T22:28:03.066Z,98276.03
2023-04-05T22:31:06.208Z,98266.31
2023-04-05T22:34:08.953Z,98274.81
2023-04-05T22:37:12.100Z,98263.56
2023-04-05T22:40:14.970Z,98267.22
2023-04-05T22:43:17.854Z,98269.31
2023-04-05T22:46:20.894Z,98267.94
2023-04-05T22:49:23.730Z,98274.88
2023-04-05T22:52:27.080Z,98266.69
2023-04-05T22:55:30.045Z,98267.16
2023-04-05T22:58:33.050Z,98268.16
2023-04-05T23:01:35.856Z,98269.41
2023-04-05T23:04:38.728Z,98269.56
2023-04-05T23:07:41.595Z,98263.31
2023-04-05T23:10:44.363Z,98267.22
2023-04-05T23:13:50.043Z,98259.38
2023-04-05T23:16:52.826Z,98264.25
2023-04-05T23:19:55.763Z,98266.19
2023-04-05T23:22:58.580Z,98255.75
2023-04-05T23:26:01.271Z,98254.09
2023-04-05T23:29:04.122Z,98249.66
2023-04-05T23:32:07.200Z,98251.34
2023-04-05T23:35:10.077Z,98250.34
2023-04-05T23:38:13.057Z,98248.44
2023-04-05T23:41:15.997Z,98245.44
2023-04-05T23:44:18.880Z,98247.16
2023-04-05T23:47:21.566Z,98244.22
2023-04-05T23:50:24.430Z,98239.31
2023-04-05T23:53:27.629Z,98235.56
2023-04-05T23:56:30.292Z,98235.56
2023-04-05T23:59:33.180Z,98239.47
